createdAt,value
2017-12-31T00:01:43.454Z,51.70
2017-12-31T00:04:11.135Z,46.73
2017-12-31T00:06:38.859Z,52.07
2017-12-31T00:09:06.514Z,47.70
2017-12-31T00:11:34.299Z,37.50
2017-12-31T00:14:02.805Z,42.23
2017-12-31T00:16:30.411Z,47.60
2017-12-31T00:18:58.191Z,62.47
2017-12-31T00:21:25.969Z,37.13
2017-12-31T00:23:54.514Z,48.30
2017-12-31T00:26:22.201Z,63.40
2017-12-31T00:28:49.990Z,59.57
2017-12-31T00:31:18.467Z,64.65
2017-12-31T00:33:47.020Z,57.13
2017-12-31T00:36:14.817Z,40.03
2017-12-31T00:38:44.231Z,41.23
2017-12-31T00:41:11.971Z,56.23
2017-12-31T00:43:40.459Z,48.53
2017-12-31T00:46:08.910Z,57.20
2017-12-31T00:48:36.808Z,49.53
2017-12-31T00:51:05.364Z,56.20
2017-12-31T00:53:33.066Z,43.80
2017-12-31T00:56:01.741Z,44.03
2017-12-31T00:58:29.701Z,56.40
2017-12-31T01:00:57.481Z,51.37
2017-12-31T01:03:25.198Z,33.10
2017-12-31T01:05:53.037Z,44.13
2017-12-31T01:08:20.673Z,47.23
2017-12-31T01:10:48.573Z,40.00
2017-12-31T01:13:16.291Z,35.47
2017-12-31T01:15:45.473Z,33.95
2017-12-31T01:18:13.581Z,43.57
2017-12-31T01:20:41.334Z,52.37
2017-12-31T01:23:09.846Z,64.50
2017-12-31T01:25:37.662Z,56.93
2017-12-31T01:28:05.352Z,75.00
2017-12-31T01:30:33.922Z,58.77
2017-12-31T01:33:01.843Z,48.80
2017-12-31T01:35:29.652Z,52.17
2017-12-31T01:37:57.452Z,55.63
2017-12-31T01:40:25.159Z,60.83
2017-12-31T01:45:25.866Z,54.40
2017-12-31T01:47:54.474Z,62.23
2017-12-31T01:50:22.236Z,54.73
2017-12-31T01:52:49.900Z,65.87
2017-12-31T01:55:17.569Z,54.33
2017-12-31T01:57:45.512Z,62.53
2017-12-31T02:00:13.725Z,61.70
2017-12-31T02:02:41.800Z,59.07
2017-12-31T02:05:09.485Z,49.60
2017-12-31T02:07:37.083Z,54.33
2017-12-31T02:10:05.684Z,50.70
2017-12-31T02:12:33.311Z,57.20
2017-12-31T02:15:01.241Z,58.37
2017-12-31T02:17:28.903Z,48.73
2017-12-31T02:19:57.383Z,53.70
2017-12-31T02:22:25.215Z,57.60
2017-12-31T02:24:52.866Z,51.33
2017-12-31T02:27:20.625Z,55.97
2017-12-31T02:29:49.158Z,42.40
2017-12-31T02:32:16.928Z,55.43
2017-12-31T02:34:44.659Z,61.60
2017-12-31T02:37:12.447Z,40.13
2017-12-31T02:39:40.421Z,39.37
2017-12-31T02:42:08.230Z,46.87
2017-12-31T02:44:36.032Z,43.17
2017-12-31T02:47:03.998Z,34.23
2017-12-31T02:49:31.743Z,38.27
2017-12-31T02:51:59.730Z,44.20
2017-12-31T02:54:27.750Z,45.93
2017-12-31T02:56:56.152Z,31.37
2017-12-31T02:59:24.086Z,41.43
2017-12-31T03:01:51.720Z,54.10
2017-12-31T03:04:19.668Z,37.97
2017-12-31T03:06:48.311Z,42.53
2017-12-31T03:09:16.474Z,18.40
2017-12-31T03:11:44.218Z,25.57
2017-12-31T03:14:11.912Z,24.97
2017-12-31T03:16:39.785Z,26.43
2017-12-31T03:19:07.422Z,22.87
2017-12-31T03:21:35.110Z,28.37
2017-12-31T03:24:03.366Z,19.53
2017-12-31T03:26:31.076Z,23.00
2017-12-31T03:28:59.444Z,29.43
2017-12-31T03:31:27.285Z,42.23
2017-12-31T03:33:55.038Z,26.90
2017-12-31T03:36:22.950Z,23.03
2017-12-31T03:38:50.765Z,23.40
2017-12-31T03:41:18.411Z,25.70
2017-12-31T03:43:47.745Z,22.07
2017-12-31T03:46:15.459Z,19.63
2017-12-31T03:48:43.805Z,16.77
2017-12-31T03:51:11.457Z,11.43
2017-12-31T03:53:40.001Z,12.23
2017-12-31T03:56:07.925Z,12.93
2017-12-31T03:58:35.506Z,14.23
2017-12-31T04:01:04.548Z,9.50
2017-12-31T04:03:32.171Z,13.90
2017-12-31T04:06:00.659Z,9.80
2017-12-31T04:08:29.190Z,9.60
2017-12-31T04:10:56.884Z,9.43
2017-12-31T04:13:24.560Z,4.23
2017-12-31T04:15:52.142Z,5.43
2017-12-31T04:18:19.875Z,5.43
2017-12-31T04:20:47.615Z,2.63
2017-12-31T04:23:15.447Z,4.87
2017-12-31T04:25:43.119Z,1.73
2017-12-31T04:28:10.754Z,2.93
2017-12-31T04:30:39.207Z,3.03
2017-12-31T04:33:06.853Z,2.10
2017-12-31T04:35:34.564Z,3.83
2017-12-31T04:38:02.250Z,3.80
2017-12-31T04:40:29.933Z,4.33
2017-12-31T04:42:57.701Z,2.60
2017-12-31T04:45:25.423Z,4.13
2017-12-31T04:47:53.059Z,1.77
2017-12-31T04:50:20.855Z,3.93
2017-12-31T04:52:48.565Z,5.00
2017-12-31T04:55:16.013Z,8.07
2017-12-31T04:57:43.469Z,4.47
2017-12-31T05:00:12.008Z,2.47
2017-12-31T05:02:39.683Z,6.60
2017-12-31T05:05:07.631Z,12.20
2017-12-31T05:07:35.294Z,1.57
2017-12-31T05:10:03.121Z,3.50
2017-12-31T05:12:30.800Z,6.33
2017-12-31T05:14:58.686Z,4.30
2017-12-31T05:17:26.519Z,8.90
2017-12-31T05:19:54.196Z,5.27
2017-12-31T05:22:21.847Z,4.20
2017-12-31T05:24:50.667Z,6.87
2017-12-31T05:27:18.603Z,11.75
2017-12-31T05:29:46.263Z,9.70
2017-12-31T05:32:14.878Z,6.67
2017-12-31T05:34:42.852Z,8.20
2017-12-31T05:37:10.545Z,10.67
2017-12-31T05:39:38.400Z,13.83
2017-12-31T05:42:07.120Z,7.57
2017-12-31T05:44:34.909Z,14.63
2017-12-31T05:47:02.635Z,17.10
2017-12-31T05:49:30.193Z,16.80
2017-12-31T05:51:57.832Z,30.00
2017-12-31T05:54:25.736Z,17.30
2017-12-31T05:56:53.848Z,14.93
2017-12-31T05:59:21.592Z,25.70
2017-12-31T06:01:49.298Z,18.20
2017-12-31T06:04:17.142Z,22.60
2017-12-31T06:06:44.935Z,25.07
2017-12-31T06:09:13.312Z,7.83
2017-12-31T06:11:41.017Z,15.70
2017-12-31T06:14:08.744Z,18.13
2017-12-31T06:16:37.331Z,20.40
2017-12-31T06:19:05.992Z,7.10
2017-12-31T06:21:33.796Z,14.80
2017-12-31T06:24:01.509Z,34.93
2017-12-31T06:26:29.373Z,27.63
2017-12-31T06:28:57.047Z,8.93
2017-12-31T06:31:24.788Z,13.80
2017-12-31T06:33:52.388Z,12.50
2017-12-31T06:36:20.369Z,19.67
2017-12-31T06:38:49.793Z,7.40
2017-12-31T06:41:17.469Z,19.47
2017-12-31T06:43:45.156Z,14.67
2017-12-31T06:46:12.823Z,29.07
2017-12-31T06:48:40.781Z,12.90
2017-12-31T06:51:08.546Z,24.80
2017-12-31T06:53:36.228Z,28.07
2017-12-31T06:56:03.970Z,20.90
2017-12-31T06:58:31.661Z,18.67
2017-12-31T07:00:59.494Z,10.10
2017-12-31T07:03:27.392Z,15.70
2017-12-31T07:05:55.034Z,21.87
2017-12-31T07:08:22.898Z,18.53
2017-12-31T07:10:50.558Z,10.87
2017-12-31T07:13:18.410Z,23.37
2017-12-31T07:15:46.157Z,9.50
2017-12-31T07:18:13.912Z,18.03
2017-12-31T07:20:42.411Z,14.60
2017-12-31T07:23:10.098Z,15.17
2017-12-31T07:25:38.108Z,17.33
2017-12-31T07:28:05.774Z,16.27
2017-12-31T07:30:34.305Z,14.73
2017-12-31T07:33:02.089Z,19.47
2017-12-31T07:35:30.523Z,20.97
2017-12-31T07:37:58.217Z,7.07
2017-12-31T07:40:25.889Z,8.10
2017-12-31T07:42:55.123Z,6.03
2017-12-31T07:45:22.860Z,8.47
2017-12-31T07:47:51.357Z,9.43
2017-12-31T07:50:19.246Z,16.10
2017-12-31T07:52:46.996Z,9.70
2017-12-31T07:55:14.762Z,4.87
2017-12-31T07:57:43.391Z,12.70
2017-12-31T08:00:11.895Z,8.07
2017-12-31T08:02:39.668Z,28.77
2017-12-31T08:05:07.646Z,9.63
2017-12-31T08:07:35.497Z,22.17
2017-12-31T08:10:03.500Z,11.43
2017-12-31T08:12:31.295Z,13.93
2017-12-31T08:14:58.975Z,7.47
2017-12-31T08:17:27.319Z,14.73
2017-12-31T08:19:55.064Z,9.63
2017-12-31T08:22:22.730Z,16.57
2017-12-31T08:24:51.624Z,7.07
2017-12-31T08:27:19.639Z,11.67
2017-12-31T08:29:48.440Z,14.57
2017-12-31T08:32:16.459Z,10.13
2017-12-31T08:34:44.320Z,7.93
2017-12-31T08:37:12.570Z,7.83
2017-12-31T08:39:40.354Z,12.00
2017-12-31T08:42:08.395Z,5.23
2017-12-31T08:44:36.503Z,11.13
2017-12-31T08:47:05.122Z,12.53
2017-12-31T08:49:33.039Z,7.47
2017-12-31T08:52:00.775Z,8.53
2017-12-31T08:54:28.662Z,9.98
2017-12-31T08:56:56.469Z,21.07
2017-12-31T08:59:24.325Z,7.40
2017-12-31T09:01:52.202Z,8.57
2017-12-31T09:04:20.076Z,5.87
2017-12-31T09:06:47.861Z,14.13
2017-12-31T09:09:16.099Z,11.40
2017-12-31T09:11:43.791Z,13.20
2017-12-31T09:14:11.686Z,13.10
2017-12-31T09:16:39.430Z,11.20
2017-12-31T09:19:07.149Z,8.57
2017-12-31T09:21:34.909Z,9.90
2017-12-31T09:24:02.587Z,5.07
2017-12-31T09:26:30.380Z,13.27
2017-12-31T09:28:58.147Z,5.73
2017-12-31T09:31:25.832Z,3.60
2017-12-31T09:33:53.459Z,5.20
2017-12-31T09:36:21.155Z,9.97
2017-12-31T09:38:48.790Z,7.20
2017-12-31T09:41:16.525Z,16.70
2017-12-31T09:43:44.450Z,9.07
2017-12-31T09:46:12.932Z,9.93
2017-12-31T09:48:41.341Z,7.30
2017-12-31T09:51:09.154Z,14.13
2017-12-31T09:53:36.834Z,8.77
2017-12-31T09:56:05.309Z,6.83
2017-12-31T09:58:33.036Z,5.47
2017-12-31T10:01:00.809Z,9.90
2017-12-31T10:03:28.682Z,5.60
2017-12-31T10:05:56.628Z,4.13
2017-12-31T10:08:24.356Z,21.90
2017-12-31T10:10:53.759Z,17.30
2017-12-31T10:13:22.302Z,16.00
2017-12-31T10:15:50.103Z,8.50
2017-12-31T10:18:18.705Z,10.53
2017-12-31T10:20:46.286Z,8.50
2017-12-31T10:23:13.954Z,5.20
2017-12-31T10:25:41.725Z,10.50
2017-12-31T10:28:09.507Z,9.37
2017-12-31T10:30:37.208Z,11.20
2017-12-31T10:33:04.936Z,14.13
2017-12-31T10:35:32.695Z,8.73
2017-12-31T10:38:00.384Z,12.17
2017-12-31T10:40:28.060Z,7.50
2017-12-31T10:42:55.688Z,26.73
2017-12-31T10:45:24.238Z,10.03
2017-12-31T10:47:52.027Z,11.70
2017-12-31T10:50:19.751Z,14.03
2017-12-31T10:52:47.706Z,5.17
2017-12-31T10:55:16.431Z,12.70
2017-12-31T10:57:44.220Z,5.77
2017-12-31T11:00:11.809Z,11.40
2017-12-31T11:02:39.592Z,6.17
2017-12-31T11:05:07.972Z,14.00
2017-12-31T11:07:35.735Z,11.50
2017-12-31T11:10:04.356Z,11.17
2017-12-31T11:12:32.036Z,6.87
2017-12-31T11:14:59.737Z,11.37
2017-12-31T11:17:28.220Z,10.37
2017-12-31T11:19:56.028Z,10.73
2017-12-31T11:22:25.330Z,6.10
2017-12-31T11:24:54.867Z,11.00
2017-12-31T11:27:22.635Z,7.63
2017-12-31T11:29:50.247Z,13.50
2017-12-31T11:32:18.059Z,12.53
2017-12-31T11:34:46.558Z,7.03
2017-12-31T11:37:14.446Z,8.27
2017-12-31T11:39:42.982Z,10.13
2017-12-31T11:42:10.677Z,9.10
2017-12-31T11:44:38.571Z,12.20
2017-12-31T11:47:06.954Z,10.87
2017-12-31T11:49:34.769Z,9.43
2017-12-31T11:52:04.582Z,4.67
2017-12-31T11:54:32.201Z,10.53
2017-12-31T11:56:59.947Z,6.00
2017-12-31T11:59:28.350Z,6.80
2017-12-31T12:01:55.904Z,5.30
2017-12-31T12:04:23.605Z,6.40
2017-12-31T12:06:51.236Z,3.67
2017-12-31T12:09:19.007Z,4.57
2017-12-31T12:11:46.716Z,10.30
2017-12-31T12:14:14.390Z,3.03
2017-12-31T12:16:42.074Z,14.53
2017-12-31T12:19:09.992Z,11.23
2017-12-31T12:21:37.732Z,17.03
2017-12-31T12:24:05.356Z,13.17
2017-12-31T12:26:33.827Z,8.50
2017-12-31T12:29:01.518Z,3.30
2017-12-31T12:31:29.241Z,5.53
2017-12-31T12:33:56.998Z,6.50
2017-12-31T12:36:26.934Z,5.93
2017-12-31T12:38:55.621Z,12.77
2017-12-31T12:41:23.421Z,4.50
2017-12-31T12:43:52.192Z,14.43
2017-12-31T12:46:19.859Z,12.23
2017-12-31T12:48:48.357Z,6.40
2017-12-31T12:51:16.271Z,4.40
2017-12-31T12:53:44.055Z,7.53
2017-12-31T12:56:11.937Z,13.10
2017-12-31T12:58:39.875Z,4.57
2017-12-31T13:01:07.638Z,10.03
2017-12-31T13:03:35.386Z,7.75
2017-12-31T13:06:03.069Z,6.30
2017-12-31T13:08:30.797Z,6.07
2017-12-31T13:10:58.564Z,2.70
2017-12-31T13:13:26.942Z,5.65
2017-12-31T13:15:54.772Z,3.60
2017-12-31T13:18:22.522Z,3.77
2017-12-31T13:20:50.163Z,5.40
2017-12-31T13:23:18.032Z,12.07
2017-12-31T13:25:45.680Z,3.63
2017-12-31T13:28:13.364Z,3.13
2017-12-31T13:30:41.196Z,5.90
2017-12-31T13:33:09.047Z,13.77
2017-12-31T13:35:36.759Z,6.90
2017-12-31T13:38:04.643Z,9.63
2017-12-31T13:40:32.248Z,4.57
2017-12-31T13:42:59.926Z,7.53
2017-12-31T13:45:28.443Z,4.27
2017-12-31T13:47:57.885Z,9.83
2017-12-31T13:50:25.530Z,8.53
2017-12-31T13:52:53.431Z,4.77
2017-12-31T13:55:21.179Z,3.57
2017-12-31T13:57:50.056Z,7.53
2017-12-31T14:00:18.631Z,7.87
2017-12-31T14:02:46.683Z,18.07
2017-12-31T14:05:14.808Z,1.70
2017-12-31T14:07:42.989Z,9.63
2017-12-31T14:10:10.816Z,8.53
2017-12-31T14:12:39.339Z,3.20
2017-12-31T14:15:07.206Z,4.60
2017-12-31T14:17:34.886Z,3.70
2017-12-31T14:20:02.883Z,1.20
2017-12-31T14:22:30.996Z,9.57
2017-12-31T14:24:58.579Z,5.30
2017-12-31T14:27:26.257Z,1.77
2017-12-31T14:29:54.101Z,4.23
2017-12-31T14:32:21.805Z,3.07
2017-12-31T14:34:49.415Z,3.20
2017-12-31T14:37:17.853Z,3.77
2017-12-31T14:39:45.576Z,6.40
2017-12-31T14:42:13.456Z,5.47
2017-12-31T14:44:41.062Z,6.30
2017-12-31T14:47:09.484Z,3.40
2017-12-31T14:49:37.333Z,4.03
2017-12-31T14:52:05.901Z,5.10
2017-12-31T14:54:33.911Z,2.93
2017-12-31T14:57:01.587Z,6.30
2017-12-31T14:59:30.101Z,4.50
2017-12-31T15:01:58.005Z,7.57
2017-12-31T15:04:25.761Z,4.83
2017-12-31T15:06:53.369Z,4.70
2017-12-31T15:09:21.118Z,3.53
2017-12-31T15:11:48.962Z,6.50
2017-12-31T15:14:19.481Z,3.33
2017-12-31T15:16:47.162Z,6.27
2017-12-31T15:19:14.894Z,3.73
2017-12-31T15:21:42.649Z,4.97
2017-12-31T15:24:10.307Z,4.70
2017-12-31T15:26:37.999Z,4.90
2017-12-31T15:29:05.613Z,12.07
2017-12-31T15:31:33.413Z,2.57
2017-12-31T15:34:00.952Z,6.80
2017-12-31T15:36:29.551Z,3.37
2017-12-31T15:38:58.076Z,5.40
2017-12-31T15:41:26.684Z,5.00
2017-12-31T15:43:54.499Z,2.00
2017-12-31T15:46:22.169Z,2.03
2017-12-31T15:48:49.967Z,3.37
2017-12-31T15:51:17.674Z,3.90
2017-12-31T15:53:45.488Z,1.90
2017-12-31T15:56:13.085Z,1.90
2017-12-31T15:58:40.941Z,6.47
2017-12-31T16:01:08.914Z,2.93
2017-12-31T16:03:36.752Z,3.40
2017-12-31T16:06:04.421Z,2.70
2017-12-31T16:08:32.209Z,4.47
2017-12-31T16:11:00.052Z,12.20
2017-12-31T16:13:27.716Z,4.70
2017-12-31T16:15:55.670Z,3.43
2017-12-31T16:18:24.275Z,3.30
2017-12-31T16:20:52.196Z,8.10
2017-12-31T16:23:20.246Z,4.10
2017-12-31T16:25:48.080Z,6.30
2017-12-31T16:28:15.869Z,8.13
2017-12-31T16:30:43.912Z,2.13
2017-12-31T16:33:11.871Z,5.00
2017-12-31T16:35:39.752Z,4.83
2017-12-31T16:38:07.556Z,2.00
2017-12-31T16:40:35.316Z,2.77
2017-12-31T16:43:03.108Z,3.60
2017-12-31T16:45:30.798Z,5.37
2017-12-31T16:47:59.373Z,3.20
2017-12-31T16:50:27.014Z,2.63
2017-12-31T16:52:54.655Z,3.13
2017-12-31T16:55:22.502Z,3.10
2017-12-31T16:57:50.193Z,3.27
2017-12-31T17:00:18.279Z,2.53
2017-12-31T17:02:46.911Z,4.83
2017-12-31T17:05:14.726Z,3.20
2017-12-31T17:07:42.551Z,3.90
2017-12-31T17:10:11.501Z,3.57
2017-12-31T17:12:40.621Z,2.93
2017-12-31T17:15:08.461Z,11.30
2017-12-31T17:17:36.355Z,5.30
2017-12-31T17:20:06.626Z,2.63
2017-12-31T17:22:34.429Z,8.73
2017-12-31T17:25:03.086Z,5.50
2017-12-31T17:27:31.159Z,11.30
2017-12-31T17:29:58.872Z,3.40
2017-12-31T17:32:27.111Z,4.87
2017-12-31T17:34:54.560Z,7.50
2017-12-31T17:37:22.010Z,4.93
2017-12-31T17:39:49.540Z,5.03
2017-12-31T17:42:16.985Z,4.00
2017-12-31T17:44:44.438Z,5.13
2017-12-31T17:47:11.915Z,5.00
2017-12-31T17:49:39.461Z,8.93
2017-12-31T17:52:06.913Z,5.73
2017-12-31T17:54:35.165Z,5.13
2017-12-31T17:57:02.629Z,11.43
2017-12-31T17:59:30.089Z,8.10
2017-12-31T18:01:57.558Z,7.87
2017-12-31T18:04:25.853Z,9.03
2017-12-31T18:06:53.300Z,6.90
2017-12-31T18:09:21.541Z,10.33
2017-12-31T18:11:49.017Z,7.77
2017-12-31T18:14:16.469Z,8.60
2017-12-31T18:16:43.920Z,6.93
2017-12-31T18:19:11.420Z,11.93
2017-12-31T18:21:38.881Z,6.50
2017-12-31T18:24:06.900Z,11.20
2017-12-31T18:26:34.597Z,11.33
2017-12-31T18:29:03.089Z,6.77
2017-12-31T18:31:30.865Z,8.80
2017-12-31T18:33:58.473Z,6.57
2017-12-31T18:36:26.013Z,4.37
2017-12-31T18:38:53.682Z,7.23
2017-12-31T18:41:21.244Z,3.60
2017-12-31T18:43:49.814Z,5.90
2017-12-31T18:46:18.938Z,3.80
2017-12-31T18:48:46.852Z,5.90
2017-12-31T18:51:15.512Z,4.00
2017-12-31T18:53:43.403Z,5.63
2017-12-31T18:56:11.285Z,8.27
2017-12-31T18:58:39.340Z,4.57
2017-12-31T19:01:06.876Z,2.63
2017-12-31T19:03:34.382Z,4.00
2017-12-31T19:06:02.557Z,3.00
2017-12-31T19:08:30.070Z,3.40
2017-12-31T19:10:57.589Z,2.70
2017-12-31T19:13:25.094Z,3.37
2017-12-31T19:15:52.643Z,6.53
2017-12-31T19:18:20.985Z,2.07
2017-12-31T19:20:48.593Z,5.67
2017-12-31T19:23:16.061Z,2.27
2017-12-31T19:25:44.292Z,3.20
2017-12-31T19:28:12.529Z,2.63
2017-12-31T19:30:40.002Z,2.03
2017-12-31T19:33:07.498Z,2.33
2017-12-31T19:35:34.954Z,3.20
2017-12-31T19:38:03.849Z,3.17
2017-12-31T19:40:31.333Z,1.93
2017-12-31T19:42:59.105Z,2.23
2017-12-31T19:45:26.855Z,2.60
2017-12-31T19:47:55.337Z,3.00
2017-12-31T19:50:23.067Z,3.73
2017-12-31T19:52:50.544Z,3.00
2017-12-31T19:55:18.119Z,3.00
2017-12-31T19:57:45.665Z,5.10
2017-12-31T20:00:13.991Z,1.37
2017-12-31T20:02:41.464Z,4.50
2017-12-31T20:05:09.012Z,2.47
2017-12-31T20:07:36.487Z,2.83
2017-12-31T20:10:04.020Z,3.87
2017-12-31T20:12:32.260Z,1.27
2017-12-31T20:14:59.732Z,2.70
2017-12-31T20:17:28.303Z,5.53
2017-12-31T20:19:57.446Z,3.67
2017-12-31T20:22:25.364Z,5.83
2017-12-31T20:24:53.044Z,7.27
2017-12-31T20:27:20.583Z,8.43
2017-12-31T20:29:48.213Z,4.20
2017-12-31T20:32:15.692Z,8.63
2017-12-31T20:34:43.149Z,9.20
2017-12-31T20:37:10.813Z,36.33
2017-12-31T20:39:38.273Z,6.30
2017-12-31T20:42:06.027Z,5.60
2017-12-31T20:44:34.049Z,4.95
2017-12-31T20:47:02.318Z,13.83
2017-12-31T20:49:29.903Z,7.03
2017-12-31T20:51:58.181Z,3.30
2017-12-31T20:54:25.716Z,3.40
2017-12-31T20:56:53.401Z,3.03
2017-12-31T20:59:21.049Z,4.73
2017-12-31T21:01:49.831Z,2.60
2017-12-31T21:04:18.327Z,2.03
2017-12-31T21:06:46.174Z,3.37
2017-12-31T21:09:13.974Z,3.15
2017-12-31T21:11:41.773Z,7.80
2017-12-31T21:14:09.289Z,3.00
2017-12-31T21:16:37.596Z,2.73
2017-12-31T21:19:05.167Z,8.63
2017-12-31T21:21:32.864Z,5.17
2017-12-31T21:24:00.414Z,10.07
2017-12-31T21:26:28.002Z,3.40
2017-12-31T21:28:56.538Z,1.73
2017-12-31T21:31:24.159Z,8.00
2017-12-31T21:33:51.667Z,2.63
2017-12-31T21:36:19.175Z,2.30
2017-12-31T21:38:46.907Z,4.03
2017-12-31T21:41:14.430Z,7.60
2017-12-31T21:43:42.089Z,5.63
2017-12-31T21:46:09.633Z,3.00
2017-12-31T21:48:37.513Z,3.70
2017-12-31T21:51:06.245Z,5.33
2017-12-31T21:53:33.989Z,8.57
2017-12-31T21:56:01.642Z,4.20
2017-12-31T21:58:29.344Z,3.93
2017-12-31T22:00:56.884Z,3.00
2017-12-31T22:03:24.463Z,2.97
2017-12-31T22:05:52.002Z,4.37
2017-12-31T22:08:19.629Z,2.77
2017-12-31T22:10:47.175Z,2.30
2017-12-31T22:13:14.812Z,1.70
2017-12-31T22:15:42.361Z,3.57
2017-12-31T22:18:09.939Z,3.13
2017-12-31T22:20:38.192Z,2.47
2017-12-31T22:23:06.718Z,1.90
2017-12-31T22:25:34.345Z,3.33
2017-12-31T22:28:01.796Z,4.10
2017-12-31T22:30:29.567Z,3.37
2017-12-31T22:32:57.021Z,4.20
2017-12-31T22:35:24.915Z,3.13
2017-12-31T22:37:52.632Z,4.97
2017-12-31T22:40:20.316Z,4.30
2017-12-31T22:42:48.174Z,7.33
2017-12-31T22:45:15.951Z,3.57
2017-12-31T22:47:43.581Z,3.33
2017-12-31T22:50:11.418Z,2.20
2017-12-31T22:52:39.896Z,5.03
2017-12-31T22:55:08.476Z,7.60
2017-12-31T22:57:37.056Z,6.53
2017-12-31T23:00:05.911Z,185.27
2017-12-31T23:02:33.630Z,26.50
2017-12-31T23:05:02.067Z,68.77
2017-12-31T23:07:29.698Z,284.17
2017-12-31T23:09:57.406Z,276.42
2017-12-31T23:12:25.430Z,104.93
2017-12-31T23:14:53.289Z,27.47
2017-12-31T23:17:21.257Z,47.33
2017-12-31T23:19:49.075Z,26.60
2017-12-31T23:22:16.672Z,217.47
2017-12-31T23:24:44.360Z,26.00
2017-12-31T23:27:12.080Z,23.00
2017-12-31T23:29:39.945Z,25.07
2017-12-31T23:32:07.610Z,14.57
2017-12-31T23:34:35.321Z,13.37
2017-12-31T23:37:04.710Z,23.50
2017-12-31T23:39:32.645Z,17.47
2017-12-31T23:42:00.373Z,19.40
2017-12-31T23:44:28.166Z,13.27
2017-12-31T23:46:56.312Z,17.37
2017-12-31T23:49:24.159Z,28.50
2017-12-31T23:51:51.994Z,31.63
2017-12-31T23:54:19.770Z,12.37
2017-12-31T23:56:48.264Z,19.93
2017-12-31T23:59:16.021Z,17.60
